createdAt,value
2017-09-17T00:00:46.750Z,22.20
2017-09-17T00:03:14.105Z,23.20
2017-09-17T00:05:41.427Z,22.83
2017-09-17T00:08:08.792Z,23.43
2017-09-17T00:10:36.111Z,22.23
2017-09-17T00:13:03.478Z,21.80
2017-09-17T00:15:30.784Z,22.10
2017-09-17T00:17:58.158Z,21.60
2017-09-17T00:20:25.456Z,22.50
2017-09-17T00:22:52.776Z,21.67
2017-09-17T00:25:20.085Z,21.57
2017-09-17T00:27:47.400Z,20.10
2017-09-17T00:30:14.724Z,23.33
2017-09-17T00:32:42.038Z,23.00
2017-09-17T00:35:09.363Z,20.60
2017-09-17T00:37:36.674Z,21.40
2017-09-17T00:40:04.014Z,19.30
2017-09-17T00:42:31.360Z,21.73
2017-09-17T00:44:59.015Z,21.00
2017-09-17T00:47:26.344Z,21.27
2017-09-17T00:49:53.688Z,20.27
2017-09-17T00:52:21.016Z,21.63
2017-09-17T00:54:48.378Z,21.07
2017-09-17T00:57:15.698Z,21.17
2017-09-17T00:59:43.967Z,21.33
2017-09-17T01:02:11.307Z,19.87
2017-09-17T01:04:38.666Z,19.23
2017-09-17T01:07:05.986Z,20.23
2017-09-17T01:09:33.338Z,19.90
2017-09-17T01:12:00.666Z,20.53
2017-09-17T01:14:28.012Z,21.67
2017-09-17T01:16:55.336Z,20.00
2017-09-17T01:19:22.636Z,20.20
2017-09-17T01:21:49.952Z,21.20
2017-09-17T01:24:17.263Z,20.97
2017-09-17T01:26:44.619Z,21.17
2017-09-17T01:29:11.962Z,20.83
2017-09-17T01:31:39.313Z,20.87
2017-09-17T01:34:06.651Z,21.27
2017-09-17T01:36:34.010Z,21.87
2017-09-17T01:39:01.318Z,21.93
2017-09-17T01:41:28.996Z,22.07
2017-09-17T01:43:56.300Z,21.07
2017-09-17T01:46:23.704Z,21.03
2017-09-17T01:48:51.013Z,21.50
2017-09-17T01:51:18.338Z,21.63
2017-09-17T01:53:46.575Z,22.30
2017-09-17T01:56:13.895Z,20.50
2017-09-17T01:58:41.208Z,20.57
2017-09-17T02:01:08.546Z,21.10
2017-09-17T02:03:36.260Z,20.60
2017-09-17T02:06:03.608Z,21.03
2017-09-17T02:08:30.976Z,20.40
2017-09-17T02:10:58.306Z,19.87
2017-09-17T02:13:25.652Z,21.20
2017-09-17T02:15:52.996Z,21.00
2017-09-17T02:18:21.229Z,21.13
2017-09-17T02:20:48.579Z,19.93
2017-09-17T02:23:15.937Z,19.17
2017-09-17T02:25:43.252Z,20.30
2017-09-17T02:28:10.625Z,21.47
2017-09-17T02:30:38.869Z,20.47
2017-09-17T02:33:06.307Z,21.50
2017-09-17T02:35:34.587Z,19.37
2017-09-17T02:38:01.927Z,18.53
2017-09-17T02:40:29.258Z,19.47
2017-09-17T02:42:56.633Z,19.10
2017-09-17T02:45:23.946Z,17.27
2017-09-17T02:47:51.284Z,20.93
2017-09-17T02:50:18.624Z,19.60
2017-09-17T02:52:45.988Z,19.80
2017-09-17T02:55:13.316Z,18.47
2017-09-17T02:57:40.668Z,17.37
2017-09-17T03:00:07.979Z,18.63
2017-09-17T03:02:35.331Z,19.70
2017-09-17T03:05:03.585Z,19.40
2017-09-17T03:07:30.942Z,19.23
2017-09-17T03:09:58.265Z,19.00
2017-09-17T03:12:25.616Z,18.90
2017-09-17T03:14:52.942Z,20.80
2017-09-17T03:17:20.243Z,18.33
2017-09-17T03:19:47.570Z,18.23
2017-09-17T03:22:14.878Z,18.57
2017-09-17T03:24:42.250Z,19.83
2017-09-17T03:27:09.560Z,19.30
2017-09-17T03:29:36.906Z,18.90
2017-09-17T03:32:04.246Z,19.93
2017-09-17T03:34:32.330Z,19.13
2017-09-17T03:37:00.561Z,17.80
2017-09-17T03:39:27.904Z,17.90
2017-09-17T03:41:55.227Z,18.20
2017-09-17T03:44:22.552Z,18.70
2017-09-17T03:46:49.848Z,17.57
2017-09-17T03:49:17.164Z,17.77
2017-09-17T03:51:44.496Z,17.73
2017-09-17T03:54:11.868Z,17.47
2017-09-17T03:56:39.177Z,18.00
2017-09-17T03:59:06.566Z,17.17
2017-09-17T04:01:33.877Z,18.40
2017-09-17T04:04:01.215Z,17.20
2017-09-17T04:06:28.579Z,17.70
2017-09-17T04:08:56.222Z,18.90
2017-09-17T04:11:23.573Z,18.87
2017-09-17T04:13:50.877Z,18.70
2017-09-17T04:16:18.220Z,18.23
2017-09-17T04:18:45.558Z,16.50
2017-09-17T04:21:12.913Z,17.83
2017-09-17T04:23:40.246Z,18.30
2017-09-17T04:26:07.594Z,18.53
2017-09-17T04:28:34.903Z,19.10
2017-09-17T04:31:02.219Z,19.50
2017-09-17T04:33:29.563Z,17.57
2017-09-17T04:35:56.869Z,16.80
2017-09-17T04:38:24.193Z,17.23
2017-09-17T04:40:51.512Z,16.93
2017-09-17T04:43:19.881Z,18.13
2017-09-17T04:45:48.189Z,18.70
2017-09-17T04:48:20.979Z,17.40
2017-09-17T04:50:49.529Z,17.63
2017-09-17T04:53:16.828Z,18.10
2017-09-17T04:55:45.083Z,17.20
2017-09-17T04:58:12.410Z,18.70
2017-09-17T05:00:39.720Z,17.50
2017-09-17T05:03:07.080Z,18.47
2017-09-17T05:05:34.388Z,17.60
2017-09-17T05:08:01.715Z,17.60
2017-09-17T05:10:29.334Z,18.20
2017-09-17T05:12:56.681Z,18.43
2017-09-17T05:15:23.986Z,17.13
2017-09-17T05:17:51.310Z,18.43
2017-09-17T05:20:18.616Z,18.30
2017-09-17T05:22:45.968Z,17.73
2017-09-17T05:25:13.294Z,17.20
2017-09-17T05:27:41.584Z,17.10
2017-09-17T05:30:08.902Z,17.10
2017-09-17T05:32:36.541Z,17.53
2017-09-17T05:35:03.892Z,16.80
2017-09-17T05:37:31.224Z,17.37
2017-09-17T05:39:58.568Z,17.33
2017-09-17T05:42:25.896Z,17.97
2017-09-17T05:44:53.231Z,17.03
2017-09-17T05:47:20.602Z,17.63
2017-09-17T05:49:47.940Z,18.30
2017-09-17T05:52:17.222Z,17.43
2017-09-17T05:54:44.581Z,17.87
2017-09-17T05:57:11.905Z,17.10
2017-09-17T05:59:39.257Z,16.07
2017-09-17T06:02:06.594Z,16.90
2017-09-17T06:04:33.933Z,16.67
2017-09-17T06:07:01.268Z,17.40
2017-09-17T06:09:28.646Z,17.10
2017-09-17T06:11:56.003Z,16.90
2017-09-17T06:14:23.325Z,16.27
2017-09-17T06:16:50.932Z,17.60
2017-09-17T06:19:18.278Z,18.07
2017-09-17T06:21:45.737Z,18.23
2017-09-17T06:24:13.089Z,18.73
2017-09-17T06:26:40.433Z,18.77
2017-09-17T06:29:07.788Z,17.40
2017-09-17T06:31:35.132Z,19.13
2017-09-17T06:34:02.778Z,17.83
2017-09-17T06:36:30.108Z,17.17
2017-09-17T06:38:57.727Z,18.33
2017-09-17T06:41:25.046Z,19.23
2017-09-17T06:43:52.369Z,17.87
2017-09-17T06:46:19.801Z,16.70
2017-09-17T06:48:47.109Z,16.93
2017-09-17T06:51:14.683Z,18.80
2017-09-17T06:53:41.986Z,16.60
2017-09-17T06:56:09.341Z,16.97
2017-09-17T06:58:36.757Z,16.00
2017-09-17T07:01:04.134Z,17.00
2017-09-17T07:03:31.440Z,17.10
2017-09-17T07:05:58.770Z,16.20
2017-09-17T07:08:26.074Z,16.97
2017-09-17T07:10:54.496Z,16.87
2017-09-17T07:13:21.897Z,16.70
2017-09-17T07:15:49.192Z,16.90
2017-09-17T07:18:16.528Z,16.87
2017-09-17T07:20:43.857Z,17.63
2017-09-17T07:23:11.222Z,17.40
2017-09-17T07:25:38.534Z,17.40
2017-09-17T07:28:05.923Z,17.30
2017-09-17T07:30:33.237Z,17.33
2017-09-17T07:33:00.593Z,18.23
2017-09-17T07:35:27.922Z,17.63
2017-09-17T07:37:55.261Z,17.47
2017-09-17T07:40:22.605Z,17.30
2017-09-17T07:42:50.280Z,17.00
2017-09-17T07:45:17.573Z,17.80
2017-09-17T07:47:44.894Z,16.30
2017-09-17T07:50:12.197Z,17.67
2017-09-17T07:52:39.534Z,16.30
2017-09-17T07:55:06.883Z,16.90
2017-09-17T07:57:34.223Z,15.87
2017-09-17T08:00:01.537Z,16.87
2017-09-17T08:02:28.869Z,16.40
2017-09-17T08:04:56.222Z,16.60
2017-09-17T08:07:23.556Z,16.70
2017-09-17T08:09:50.897Z,16.83
2017-09-17T08:12:18.230Z,16.50
2017-09-17T08:14:45.605Z,17.10
2017-09-17T08:17:12.917Z,16.10
2017-09-17T08:19:40.275Z,16.40
2017-09-17T08:22:07.601Z,16.60
2017-09-17T08:24:34.962Z,15.50
2017-09-17T08:27:02.286Z,15.83
2017-09-17T08:29:29.623Z,16.20
2017-09-17T08:31:56.965Z,16.00
2017-09-17T08:34:24.375Z,15.40
2017-09-17T08:36:51.680Z,14.43
2017-09-17T08:39:19.022Z,15.03
2017-09-17T08:41:46.342Z,13.47
2017-09-17T08:44:13.997Z,14.37
2017-09-17T08:46:41.301Z,14.47
2017-09-17T08:49:08.644Z,14.00
2017-09-17T08:51:35.988Z,14.37
2017-09-17T08:54:03.328Z,13.07
2017-09-17T08:56:30.693Z,14.13
2017-09-17T08:58:58.021Z,14.60
2017-09-17T09:01:25.386Z,14.30
2017-09-17T09:03:52.700Z,14.30
2017-09-17T09:06:20.049Z,14.70
2017-09-17T09:08:47.349Z,14.23
2017-09-17T09:11:14.681Z,14.10
2017-09-17T09:13:41.981Z,13.93
2017-09-17T09:16:09.409Z,13.63
2017-09-17T09:18:36.757Z,14.13
2017-09-17T09:21:04.204Z,14.33
2017-09-17T09:23:31.509Z,13.37
2017-09-17T09:25:58.847Z,13.33
2017-09-17T09:28:26.149Z,12.77
2017-09-17T09:30:53.832Z,12.90
2017-09-17T09:33:21.205Z,11.97
2017-09-17T09:35:48.520Z,11.83
2017-09-17T09:38:15.835Z,11.90
2017-09-17T09:40:43.157Z,10.40
2017-09-17T09:43:10.461Z,10.87
2017-09-17T09:45:37.785Z,10.20
2017-09-17T09:48:05.121Z,9.00
2017-09-17T09:50:32.429Z,10.17
2017-09-17T09:52:59.745Z,9.50
2017-09-17T09:55:27.069Z,9.40
2017-09-17T09:57:54.728Z,9.00
2017-09-17T10:00:22.070Z,9.03
2017-09-17T10:02:49.429Z,8.53
2017-09-17T10:05:16.761Z,8.90
2017-09-17T10:07:44.122Z,6.77
2017-09-17T10:10:11.428Z,7.47
2017-09-17T10:12:39.072Z,7.27
2017-09-17T10:15:06.417Z,8.07
2017-09-17T10:17:34.575Z,6.90
2017-09-17T10:20:01.913Z,7.87
2017-09-17T10:22:29.306Z,6.70
2017-09-17T10:24:56.605Z,8.00
2017-09-17T10:27:23.957Z,7.27
2017-09-17T10:29:51.293Z,7.07
2017-09-17T10:32:18.660Z,6.63
2017-09-17T10:34:45.969Z,6.47
2017-09-17T10:37:13.326Z,6.50
2017-09-17T10:39:40.698Z,6.63
2017-09-17T10:42:08.013Z,5.90
2017-09-17T10:44:35.345Z,6.00
2017-09-17T10:47:02.882Z,6.17
2017-09-17T10:49:30.218Z,6.23
2017-09-17T10:51:57.509Z,6.27
2017-09-17T10:54:25.132Z,6.90
2017-09-17T10:56:52.479Z,7.00
2017-09-17T10:59:19.809Z,6.57
2017-09-17T11:01:47.157Z,5.63
2017-09-17T11:04:14.507Z,5.90
2017-09-17T11:06:42.301Z,6.33
2017-09-17T11:09:09.655Z,6.00
2017-09-17T11:11:36.966Z,6.23
2017-09-17T11:14:04.270Z,5.60
2017-09-17T11:16:31.615Z,5.63
2017-09-17T11:18:58.947Z,5.50
2017-09-17T11:21:26.301Z,5.40
2017-09-17T11:23:53.602Z,5.83
2017-09-17T11:26:20.922Z,5.30
2017-09-17T11:28:48.220Z,5.50
2017-09-17T11:31:15.547Z,5.80
2017-09-17T11:33:42.868Z,4.90
2017-09-17T11:36:10.176Z,4.63
2017-09-17T11:38:37.469Z,4.90
2017-09-17T11:41:04.805Z,5.00
2017-09-17T11:43:32.142Z,4.73
2017-09-17T11:45:59.476Z,4.13
2017-09-17T11:48:26.805Z,4.30
2017-09-17T11:50:54.120Z,4.67
2017-09-17T11:53:21.413Z,4.33
2017-09-17T11:55:48.751Z,4.10
2017-09-17T11:58:16.055Z,4.10
2017-09-17T12:00:43.399Z,3.37
2017-09-17T12:03:10.713Z,3.00
2017-09-17T12:05:38.045Z,3.20
2017-09-17T12:08:05.380Z,3.50
2017-09-17T12:10:32.988Z,3.37
2017-09-17T12:13:00.326Z,3.53
2017-09-17T12:15:27.638Z,3.67
2017-09-17T12:17:54.929Z,2.73
2017-09-17T12:20:22.284Z,3.10
2017-09-17T12:22:49.584Z,2.93
2017-09-17T12:25:16.902Z,3.10
2017-09-17T12:27:44.271Z,3.00
2017-09-17T12:30:11.724Z,2.87
2017-09-17T12:32:39.069Z,2.80
2017-09-17T12:35:06.363Z,3.80
2017-09-17T12:37:33.690Z,3.27
2017-09-17T12:40:00.998Z,3.60
2017-09-17T12:42:28.343Z,3.27
2017-09-17T12:44:55.689Z,3.77
2017-09-17T12:47:23.017Z,3.27
2017-09-17T12:49:50.392Z,3.50
2017-09-17T12:52:17.701Z,3.57
2017-09-17T12:54:45.052Z,3.77
2017-09-17T12:57:12.477Z,3.50
2017-09-17T12:59:39.793Z,3.73
2017-09-17T13:02:07.108Z,4.03
2017-09-17T13:04:34.408Z,4.17
2017-09-17T13:07:01.811Z,3.53
2017-09-17T13:09:29.105Z,4.07
2017-09-17T13:11:56.742Z,3.57
2017-09-17T13:14:24.068Z,3.60
2017-09-17T13:16:51.414Z,3.77
2017-09-17T13:19:18.736Z,3.27
2017-09-17T13:21:46.048Z,3.87
2017-09-17T13:24:13.340Z,4.10
2017-09-17T13:26:40.685Z,3.73
2017-09-17T13:29:07.999Z,3.73
2017-09-17T13:31:35.362Z,3.33
2017-09-17T13:34:02.689Z,3.50
2017-09-17T13:36:30.006Z,3.60
2017-09-17T13:38:57.365Z,3.00
2017-09-17T13:41:24.668Z,3.30
2017-09-17T13:43:51.973Z,3.47
2017-09-17T13:46:19.305Z,3.20
2017-09-17T13:48:46.628Z,3.40
2017-09-17T13:51:13.922Z,3.60
2017-09-17T13:53:41.233Z,3.70
2017-09-17T13:56:08.549Z,3.50
2017-09-17T13:58:35.874Z,3.97
2017-09-17T14:01:09.026Z,3.97
2017-09-17T14:03:36.864Z,4.20
2017-09-17T14:06:04.234Z,4.10
2017-09-17T14:08:43.205Z,3.97
2017-09-17T14:11:13.158Z,4.70
2017-09-17T14:13:40.470Z,4.80
2017-09-17T14:16:07.844Z,4.30
2017-09-17T14:18:35.619Z,4.40
2017-09-17T14:21:03.159Z,4.20
2017-09-17T14:23:30.475Z,4.90
2017-09-17T14:25:57.945Z,5.23
2017-09-17T14:28:25.255Z,5.50
2017-09-17T14:30:52.540Z,5.13
2017-09-17T14:33:19.892Z,4.80
2017-09-17T14:35:47.213Z,4.80
2017-09-17T14:38:14.560Z,4.03
2017-09-17T14:40:41.854Z,4.00
2017-09-17T14:43:09.164Z,4.40
2017-09-17T14:45:36.465Z,4.50
2017-09-17T14:48:03.798Z,4.37
2017-09-17T14:50:32.069Z,4.73
2017-09-17T14:52:59.637Z,4.60
2017-09-17T14:55:26.972Z,4.63
2017-09-17T14:57:54.291Z,3.90
2017-09-17T15:00:21.644Z,4.30
2017-09-17T15:02:48.953Z,3.83
2017-09-17T15:05:16.271Z,3.57
2017-09-17T15:07:43.580Z,3.33
2017-09-17T15:10:10.909Z,3.50
2017-09-17T15:12:38.221Z,3.50
2017-09-17T15:15:06.515Z,3.50
2017-09-17T15:17:33.816Z,3.57
2017-09-17T15:20:02.013Z,3.17
2017-09-17T15:22:29.326Z,3.63
2017-09-17T15:24:56.620Z,3.60
2017-09-17T15:27:23.928Z,3.73
2017-09-17T15:29:51.237Z,4.00
2017-09-17T15:32:18.534Z,9.43
2017-09-17T15:34:45.885Z,14.43
2017-09-17T15:37:13.194Z,8.70
2017-09-17T15:39:40.535Z,7.97
2017-09-17T15:42:07.838Z,12.67
2017-09-17T15:44:35.343Z,8.30
2017-09-17T15:47:02.665Z,6.40
2017-09-17T15:49:30.031Z,8.87
2017-09-17T15:51:57.356Z,9.67
2017-09-17T15:54:24.721Z,15.33
2017-09-17T15:56:52.037Z,17.43
2017-09-17T15:59:20.051Z,13.70
2017-09-17T16:01:47.356Z,18.10
2017-09-17T16:04:14.692Z,12.70
2017-09-17T16:06:42.040Z,10.93
2017-09-17T16:09:09.369Z,10.63
2017-09-17T16:11:36.718Z,10.90
2017-09-17T16:14:04.058Z,11.30
2017-09-17T16:16:31.377Z,9.67
2017-09-17T16:18:58.733Z,10.43
2017-09-17T16:21:26.066Z,31.40
2017-09-17T16:23:53.410Z,25.57
2017-09-17T16:26:20.741Z,19.77
2017-09-17T16:28:48.067Z,13.97
2017-09-17T16:31:15.369Z,11.40
2017-09-17T16:33:42.685Z,11.00
2017-09-17T16:36:09.986Z,6.07
2017-09-17T16:38:37.320Z,5.53
2017-09-17T16:41:04.622Z,4.73
2017-09-17T16:43:31.933Z,4.63
2017-09-17T16:45:59.252Z,4.80
2017-09-17T16:48:26.561Z,4.90
2017-09-17T16:50:53.841Z,5.20
2017-09-17T16:53:21.173Z,5.20
2017-09-17T16:55:48.465Z,4.97
2017-09-17T16:58:15.766Z,5.00
2017-09-17T17:00:43.068Z,5.30
2017-09-17T17:03:10.384Z,6.87
2017-09-17T17:05:37.709Z,9.10
2017-09-17T17:08:05.021Z,6.43
2017-09-17T17:10:32.332Z,6.30
2017-09-17T17:12:59.625Z,6.43
2017-09-17T17:15:26.965Z,7.47
2017-09-17T17:17:54.303Z,7.43
2017-09-17T17:20:21.646Z,6.73
2017-09-17T17:22:48.973Z,6.70
2017-09-17T17:25:16.321Z,6.60
2017-09-17T17:27:43.654Z,6.70
2017-09-17T17:30:10.965Z,6.90
2017-09-17T17:32:38.265Z,7.90
2017-09-17T17:35:05.603Z,7.70
2017-09-17T17:37:34.866Z,8.43
2017-09-17T17:40:02.212Z,9.27
2017-09-17T17:42:30.465Z,9.50
2017-09-17T17:44:57.850Z,8.57
2017-09-17T17:47:25.144Z,9.30
2017-09-17T17:49:52.460Z,9.90
2017-09-17T17:52:19.765Z,10.30
2017-09-17T17:54:47.120Z,10.87
2017-09-17T17:57:14.449Z,13.50
2017-09-17T17:59:41.753Z,10.20
2017-09-17T18:02:09.065Z,10.40
2017-09-17T18:04:36.372Z,11.03
2017-09-17T18:07:03.750Z,11.47
2017-09-17T18:09:31.268Z,11.47
2017-09-17T18:11:58.885Z,11.97
2017-09-17T18:14:26.205Z,12.60
2017-09-17T18:16:53.526Z,13.53
2017-09-17T18:19:20.832Z,15.43
2017-09-17T18:21:48.149Z,16.90
2017-09-17T18:24:15.470Z,17.23
2017-09-17T18:26:42.797Z,13.03
2017-09-17T18:29:10.145Z,14.60
2017-09-17T18:31:37.543Z,13.90
2017-09-17T18:34:04.840Z,15.77
2017-09-17T18:36:32.165Z,15.60
2017-09-17T18:38:59.473Z,15.47
2017-09-17T18:41:26.802Z,15.60
2017-09-17T18:43:54.357Z,14.63
2017-09-17T18:46:21.665Z,15.33
2017-09-17T18:48:48.994Z,15.47
2017-09-17T18:51:16.347Z,14.70
2017-09-17T18:53:43.672Z,18.20
2017-09-17T18:56:10.994Z,20.30
2017-09-17T18:58:38.309Z,20.67
2017-09-17T19:01:05.636Z,18.60
2017-09-17T19:03:32.948Z,20.63
2017-09-17T19:06:00.628Z,19.80
2017-09-17T19:08:27.928Z,17.87
2017-09-17T19:10:55.272Z,17.83
2017-09-17T19:13:22.610Z,17.77
2017-09-17T19:15:49.937Z,21.10
2017-09-17T19:18:17.246Z,25.73
2017-09-17T19:20:45.461Z,27.33
2017-09-17T19:23:12.853Z,24.43
2017-09-17T19:25:40.162Z,22.33
2017-09-17T19:28:07.808Z,22.37
2017-09-17T19:30:35.113Z,22.27
2017-09-17T19:33:02.429Z,24.03
2017-09-17T19:35:29.790Z,24.10
2017-09-17T19:37:57.119Z,26.97
2017-09-17T19:40:24.451Z,29.67
2017-09-17T19:42:51.774Z,25.57
2017-09-17T19:45:19.072Z,25.30
2017-09-17T19:47:46.791Z,24.23
2017-09-17T19:50:14.098Z,23.97
2017-09-17T19:52:41.431Z,24.00
2017-09-17T19:55:08.748Z,25.23
2017-09-17T19:57:36.065Z,24.50
2017-09-17T20:00:03.625Z,24.87
2017-09-17T20:02:30.986Z,25.60
2017-09-17T20:04:58.307Z,25.70
2017-09-17T20:07:25.634Z,27.00
2017-09-17T20:09:52.976Z,26.80
2017-09-17T20:12:20.274Z,27.90
2017-09-17T20:14:47.574Z,24.90
2017-09-17T20:17:14.893Z,26.83
2017-09-17T20:19:42.202Z,26.77
2017-09-17T20:22:09.557Z,28.57
2017-09-17T20:24:36.938Z,30.47
2017-09-17T20:27:04.305Z,30.57
2017-09-17T20:29:31.608Z,32.47
2017-09-17T20:31:59.189Z,33.10
2017-09-17T20:34:26.509Z,30.40
2017-09-17T20:36:53.829Z,29.00
2017-09-17T20:39:21.141Z,30.20
2017-09-17T20:41:48.465Z,29.50
2017-09-17T20:44:15.773Z,26.70
2017-09-17T20:46:43.154Z,25.33
2017-09-17T20:49:10.463Z,20.77
2017-09-17T20:51:37.765Z,19.53
2017-09-17T20:54:05.093Z,18.50
2017-09-17T20:56:32.405Z,16.43
2017-09-17T20:58:59.759Z,15.43
2017-09-17T21:01:27.067Z,15.17
2017-09-17T21:03:54.377Z,14.73
2017-09-17T21:06:21.677Z,13.30
2017-09-17T21:08:48.996Z,13.13
2017-09-17T21:11:16.325Z,13.50
2017-09-17T21:13:43.873Z,12.10
2017-09-17T21:16:11.227Z,11.83
2017-09-17T21:18:38.568Z,11.47
2017-09-17T21:21:05.895Z,10.33
2017-09-17T21:23:33.257Z,10.27
2017-09-17T21:26:00.593Z,10.47
2017-09-17T21:28:28.236Z,9.97
2017-09-17T21:30:55.534Z,9.37
2017-09-17T21:33:22.849Z,10.77
2017-09-17T21:35:50.153Z,8.90
2017-09-17T21:38:17.495Z,8.70
2017-09-17T21:40:44.809Z,8.53
2017-09-17T21:43:12.126Z,8.37
2017-09-17T21:45:39.428Z,8.53
2017-09-17T21:48:08.701Z,8.67
2017-09-17T21:50:36.016Z,8.67
2017-09-17T21:53:03.360Z,9.00
2017-09-17T21:55:30.654Z,8.13
2017-09-17T21:57:57.949Z,9.37
2017-09-17T22:00:25.313Z,8.40
2017-09-17T22:02:52.640Z,8.43
2017-09-17T22:05:19.993Z,8.30
2017-09-17T22:07:47.313Z,8.07
2017-09-17T22:10:14.692Z,8.30
2017-09-17T22:12:41.985Z,8.60
2017-09-17T22:15:09.314Z,8.53
2017-09-17T22:17:36.618Z,9.13
2017-09-17T22:20:03.937Z,9.33
2017-09-17T22:22:31.262Z,8.93
2017-09-17T22:24:58.613Z,9.40
2017-09-17T22:27:25.943Z,9.80
2017-09-17T22:29:53.262Z,9.33
2017-09-17T22:32:20.557Z,9.37
2017-09-17T22:34:47.878Z,8.57
2017-09-17T22:37:15.177Z,9.83
2017-09-17T22:39:42.501Z,9.90
2017-09-17T22:42:09.824Z,10.37
2017-09-17T22:44:37.162Z,10.43
2017-09-17T22:47:04.470Z,10.07
2017-09-17T22:49:31.807Z,10.60
2017-09-17T22:51:59.277Z,10.97
2017-09-17T22:54:26.581Z,9.77
2017-09-17T22:56:53.906Z,10.60
2017-09-17T22:59:21.216Z,9.80
2017-09-17T23:01:48.573Z,10.10
2017-09-17T23:04:16.768Z,10.27
2017-09-17T23:06:44.093Z,10.23
2017-09-17T23:09:11.398Z,10.57
2017-09-17T23:11:38.721Z,9.63
2017-09-17T23:14:06.033Z,9.50
2017-09-17T23:16:33.350Z,11.07
2017-09-17T23:19:00.661Z,10.70
2017-09-17T23:21:27.989Z,9.90
2017-09-17T23:23:55.293Z,9.20
2017-09-17T23:26:22.614Z,10.40
2017-09-17T23:28:49.925Z,9.90
2017-09-17T23:31:17.232Z,8.73
2017-09-17T23:33:44.562Z,10.13
2017-09-17T23:36:11.943Z,10.13
2017-09-17T23:38:39.240Z,10.20
2017-09-17T23:41:06.577Z,10.87
2017-09-17T23:43:33.933Z,10.20
2017-09-17T23:46:02.219Z,10.60
2017-09-17T23:48:29.544Z,11.00
2017-09-17T23:50:56.873Z,10.70
2017-09-17T23:53:29.998Z,11.10
2017-09-17T23:55:57.301Z,10.30
2017-09-17T23:58:24.641Z,10.67
